Time;durP1;ratioP1;P1;durP2;ratioP2;P2;SDS_P1;SDS_P2;PMS_P1;PMS_P2;Temp;Humidity;BMP_temperature;BMP_pressure;BME280_temperature;BME280_humidity;BME280_pressure;Samples;Min_cycle;Max_cycle;Signal;HPM_P1;HPM_P2
2022/01/06 00:00:13;;;;;;;13.75;1.20;;;4.80;99.90;;;;;;5028101;28;20070;-34
2022/01/06 00:02:39;;;;;;;12.47;1.80;;;4.80;99.90;;;;;;5032131;28;20065;-31
2022/01/06 00:05:05;;;;;;;10.55;1.30;;;4.80;99.90;;;;;;5028620;28;20069;-31
2022/01/06 00:07:32;;;;;;;5.80;1.10;;;4.90;99.90;;;;;;5030011;28;20022;-36
2022/01/06 00:09:58;;;;;;;10.23;1.35;;;4.90;99.90;;;;;;5025558;28;20036;-37
2022/01/06 00:12:32;;;;;;;9.70;1.42;;;4.80;99.90;;;;;;5013441;28;20444;-37
2022/01/06 00:15:10;;;;;;;15.85;1.85;;;4.80;99.90;;;;;;5028727;28;20574;-32
2022/01/06 00:18:14;;;;;;;7.78;1.75;;;4.70;99.90;;;;;;5029441;28;20453;-31
2022/01/06 00:25:57;;;;;;;11.57;1.15;;;4.80;99.90;;;;;;5026849;28;20076;-34
2022/01/06 00:28:23;;;;;;;9.82;1.73;;;4.80;99.90;;;;;;5025615;28;20481;-37
2022/01/06 00:30:49;;;;;;;4.00;1.08;;;4.90;99.90;;;;;;5028296;28;20032;-33
2022/01/06 00:33:16;;;;;;;11.23;1.73;;;4.90;99.90;;;;;;5029572;28;20025;-39
2022/01/06 00:35:41;;;;;;;9.25;1.15;;;4.90;99.90;;;;;;5030360;28;20486;-32
2022/01/06 00:38:08;;;;;;;9.63;1.42;;;4.90;99.90;;;;;;5030148;28;20059;-31
2022/01/06 00:40:34;;;;;;;12.10;1.35;;;4.80;99.90;;;;;;5028198;28;20026;-39
2022/01/06 00:43:02;;;;;;;10.73;1.05;;;4.70;99.90;;;;;;5045098;28;20564;-33
2022/01/06 00:45:28;;;;;;;12.75;0.98;;;4.70;99.90;;;;;;5030271;28;20033;-33
2022/01/06 00:47:53;;;;;;;8.20;0.93;;;4.70;99.90;;;;;;5027877;28;20033;-39
2022/01/06 00:50:19;;;;;;;10.50;1.15;;;4.70;99.90;;;;;;5025447;28;20470;-39
2022/01/06 00:52:45;;;;;;;10.45;1.25;;;4.70;99.90;;;;;;5020331;28;20029;-32
2022/01/06 00:55:10;;;;;;;12.77;2.60;;;4.80;99.90;;;;;;5027469;28;20076;-31
2022/01/06 00:57:36;;;;;;;14.35;0.95;;;4.80;99.90;;;;;;5024821;28;20116;-37
2022/01/06 01:00:03;;;;;;;4.57;1.58;;;4.80;99.90;;;;;;5032075;28;20037;-37
2022/01/06 01:02:29;;;;;;;7.17;0.73;;;4.70;99.90;;;;;;5030052;28;20045;-37
2022/01/06 01:04:54;;;;;;;9.15;1.27;;;4.70;99.90;;;;;;5033312;28;20033;-38
2022/01/06 01:07:20;;;;;;;5.45;1.10;;;4.70;99.90;;;;;;5022127;28;20070;-34
2022/01/06 01:09:45;;;;;;;2.58;1.05;;;4.60;99.90;;;;;;5021818;28;20039;-36
2022/01/06 01:12:11;;;;;;;5.50;1.40;;;4.60;99.90;;;;;;5024880;28;20040;-38
2022/01/06 01:14:58;;;;;;;4.22;1.10;;;4.60;99.90;;;;;;5021229;28;20529;-33
2022/01/06 01:21:04;;;;;;;3.92;1.25;;;4.50;99.90;;;;;;5029051;28;20064;-35
2022/01/06 01:23:41;;;;;;;12.63;1.30;;;4.40;99.90;;;;;;5031381;28;20032;-37
2022/01/06 01:26:07;;;;;;;4.77;0.60;;;4.40;99.90;;;;;;5032439;28;20029;-29
2022/01/06 01:28:42;;;;;;;8.30;0.85;;;4.30;99.90;;;;;;5031974;28;20488;-28
2022/01/06 01:31:30;;;;;;;6.75;1.45;;;4.30;99.90;;;;;;5033154;28;20028;-31
2022/01/06 01:33:58;;;;;;;;;;;4.30;99.90;;;;;;5033988;28;20392;-33
2022/01/06 01:36:25;;;;;;;7.45;1.27;;;4.20;99.90;;;;;;5027133;28;19954;-33
2022/01/06 01:38:51;;;;;;;10.98;1.65;;;4.20;99.90;;;;;;5034283;28;20461;-33
2022/01/06 01:41:16;;;;;;;9.32;1.40;;;4.30;99.90;;;;;;5032708;28;20028;-34
2022/01/06 01:43:43;;;;;;;5.30;1.10;;;4.30;99.90;;;;;;5016898;28;20029;-32
2022/01/06 01:46:12;;;;;;;5.13;0.65;;;4.30;99.90;;;;;;5023946;28;20028;-39
2022/01/06 01:48:42;;;;;;;8.50;1.02;;;4.30;99.90;;;;;;5016418;28;20473;-35
2022/01/06 01:51:10;;;;;;;9.48;1.38;;;4.30;99.90;;;;;;5017570;28;20022;-33
2022/01/06 01:53:37;;;;;;;14.85;1.17;;;4.30;99.90;;;;;;5035490;28;20026;-30
2022/01/06 01:56:07;;;;;;;5.97;1.08;;;4.50;99.90;;;;;;5026612;28;20438;-32
2022/01/06 01:58:37;;;;;;;8.77;1.38;;;4.60;99.90;;;;;;5035280;28;20029;-35
2022/01/06 02:01:03;;;;;;;8.25;1.23;;;4.70;99.90;;;;;;5035264;28;20461;-32
2022/01/06 02:03:29;;;;;;;8.57;0.90;;;4.80;99.90;;;;;;5034705;28;20099;-32
2022/01/06 02:05:55;;;;;;;7.85;1.20;;;4.90;99.90;;;;;;5033960;28;20033;-32
2022/01/06 02:08:20;;;;;;;10.13;1.02;;;5.00;99.90;;;;;;5035040;28;20374;-33
2022/01/06 02:10:46;;;;;;;10.55;1.27;;;5.00;99.90;;;;;;5033902;28;20052;-35
2022/01/06 02:16:34;;;;;;;12.70;1.95;;;5.20;99.90;;;;;;5025856;28;20024;-42
2022/01/06 02:19:00;;;;;;;10.25;1.85;;;5.20;99.90;;;;;;5032319;28;20045;-36
2022/01/06 02:21:26;;;;;;;5.95;0.80;;;5.20;99.90;;;;;;5035262;28;20053;-35
2022/01/06 02:23:51;;;;;;;4.93;1.17;;;5.20;99.90;;;;;;5035074;28;20104;-33
2022/01/06 02:26:17;;;;;;;11.30;1.33;;;5.20;99.90;;;;;;5034898;28;20025;-35
2022/01/06 02:28:43;;;;;;;9.88;1.15;;;5.20;99.90;;;;;;5034151;28;20032;-33
2022/01/06 02:31:09;;;;;;;8.00;0.88;;;5.10;99.90;;;;;;5033602;28;20473;-36
2022/01/06 02:33:36;;;;;;;12.52;1.45;;;5.10;99.90;;;;;;5034488;28;20044;-39
2022/01/06 02:36:03;;;;;;;11.02;0.98;;;5.00;99.90;;;;;;5035057;28;20382;-34
2022/01/06 02:38:29;;;;;;;4.70;0.68;;;5.00;99.90;;;;;;5033632;28;20393;-35
2022/01/06 02:40:54;;;;;;;10.32;1.30;;;4.90;99.90;;;;;;5033979;28;20109;-40
2022/01/06 02:43:23;;;;;;;8.15;1.83;;;4.90;99.90;;;;;;5034667;28;20028;-31
2022/01/06 02:45:49;;;;;;;7.72;1.20;;;4.90;99.90;;;;;;5034521;28;20045;-34
2022/01/06 02:48:15;;;;;;;8.38;1.73;;;4.80;99.90;;;;;;5040787;28;20033;-35
2022/01/06 02:50:46;;;;;;;12.98;1.85;;;4.80;99.90;;;;;;5034190;28;20029;-35
2022/01/06 02:53:13;;;;;;;2.05;0.82;;;4.90;99.90;;;;;;5038631;28;20048;-38
2022/01/06 02:55:42;;;;;;;16.30;1.40;;;4.90;99.90;;;;;;5034574;28;20474;-34
2022/01/06 02:58:08;;;;;;;13.20;1.02;;;4.80;99.90;;;;;;5037432;28;20014;-32
2022/01/06 03:00:37;;;;;;;4.03;0.77;;;4.80;99.90;;;;;;5034310;28;20032;-37
2022/01/06 03:03:02;;;;;;;9.30;1.30;;;4.80;99.90;;;;;;5031853;28;20065;-40
2022/01/06 03:05:28;;;;;;;5.20;0.95;;;4.70;99.90;;;;;;5030544;28;20069;-33
2022/01/06 03:07:54;;;;;;;4.30;0.77;;;4.70;99.90;;;;;;5025804;28;20033;-34
2022/01/06 03:10:19;;;;;;;5.32;1.15;;;4.60;99.90;;;;;;5021419;28;20458;-41
2022/01/06 03:12:47;;;;;;;8.05;1.00;;;4.60;99.90;;;;;;5015062;28;20037;-33
2022/01/06 03:15:18;;;;;;;6.88;1.23;;;4.60;99.90;;;;;;5022021;28;20470;-30
2022/01/06 03:17:49;;;;;;;8.20;1.27;;;4.50;99.90;;;;;;5029464;28;20377;-32
2022/01/06 03:20:18;;;;;;;4.43;1.33;;;4.50;99.90;;;;;;5030337;28;20056;-41
2022/01/06 03:22:44;;;;;;;10.05;1.10;;;4.50;99.90;;;;;;5014248;28;20022;-33
2022/01/06 03:25:12;;;;;;;10.77;0.93;;;4.50;99.90;;;;;;5026019;28;20377;-35
2022/01/06 03:27:39;;;;;;;6.50;1.45;;;4.40;99.90;;;;;;5016007;28;20022;-48
2022/01/06 03:30:08;;;;;;;8.38;0.95;;;4.50;99.90;;;;;;5014316;28;20563;-47
2022/01/06 03:32:34;;;;;;;5.60;1.77;;;4.40;99.90;;;;;;5014672;28;20025;-34
2022/01/06 03:35:00;;;;;;;11.00;0.88;;;4.40;99.90;;;;;;5026177;28;20025;-33
2022/01/06 03:37:26;;;;;;;7.68;1.40;;;4.30;99.90;;;;;;5038924;28;20041;-36
2022/01/06 03:39:52;;;;;;;10.27;2.28;;;4.30;99.90;;;;;;5037171;28;20029;-32
2022/01/06 03:42:17;;;;;;;5.97;0.90;;;4.20;99.90;;;;;;5045781;28;20029;-29
2022/01/06 03:44:43;;;;;;;7.25;1.13;;;4.20;99.90;;;;;;5033482;28;20108;-34
2022/01/06 03:47:09;;;;;;;8.30;1.25;;;4.20;99.90;;;;;;5046325;28;20032;-42
2022/01/06 03:49:34;;;;;;;11.48;1.02;;;4.20;99.90;;;;;;5035085;28;20048;-35
2022/01/06 03:52:00;;;;;;;10.85;1.60;;;4.20;99.90;;;;;;5048746;28;20021;-30
2022/01/06 03:54:26;;;;;;;5.80;1.30;;;4.10;99.90;;;;;;5032851;28;20499;-31
2022/01/06 03:56:52;;;;;;;9.82;1.00;;;4.10;99.90;;;;;;5043039;28;20075;-35
2022/01/06 03:59:18;;;;;;;7.10;1.00;;;4.00;99.90;;;;;;5034218;28;20485;-33
2022/01/06 04:01:45;;;;;;;15.15;1.48;;;4.00;99.90;;;;;;5041642;28;20044;-33
2022/01/06 04:04:13;;;;;;;10.15;1.05;;;4.00;99.90;;;;;;5046511;28;20461;-34
2022/01/06 04:06:39;;;;;;;8.40;1.30;;;4.00;99.90;;;;;;5033835;28;20385;-33
2022/01/06 04:09:05;;;;;;;5.03;1.15;;;3.90;99.90;;;;;;5042851;28;20033;-32
2022/01/06 04:11:31;;;;;;;3.28;0.98;;;3.90;99.90;;;;;;5035903;28;20029;-38
2022/01/06 04:13:57;;;;;;;9.50;1.38;;;3.80;99.90;;;;;;5035985;28;20028;-31
2022/01/06 04:16:24;;;;;;;3.38;0.65;;;3.80;99.90;;;;;;5036449;28;20021;-32
2022/01/06 04:18:50;;;;;;;4.20;1.00;;;3.80;99.90;;;;;;5047662;28;20056;-44
2022/01/06 04:21:16;;;;;;;10.25;2.25;;;3.80;99.90;;;;;;5051000;28;20025;-35
2022/01/06 04:23:41;;;;;;;7.30;1.17;;;3.80;99.90;;;;;;5039082;28;20029;-36
2022/01/06 04:26:07;;;;;;;2.55;0.85;;;3.80;99.90;;;;;;5039913;28;20032;-32
2022/01/06 04:28:33;;;;;;;11.25;1.35;;;3.70;99.90;;;;;;5042792;28;20024;-30
2022/01/06 04:30:59;;;;;;;4.88;0.98;;;3.70;99.90;;;;;;5038327;28;20061;-34
2022/01/06 04:33:24;;;;;;;6.75;1.17;;;3.70;99.90;;;;;;5048220;28;20025;-32
2022/01/06 04:35:50;;;;;;;8.40;1.40;;;3.70;99.90;;;;;;5034797;28;20112;-34
2022/01/06 04:38:16;;;;;;;13.13;1.75;;;3.60;99.90;;;;;;5032675;28;20413;-34
2022/01/06 04:40:41;;;;;;;7.60;1.25;;;3.60;99.90;;;;;;5043553;28;20025;-31
2022/01/06 04:43:07;;;;;;;5.10;0.98;;;3.50;99.90;;;;;;5035394;28;20041;-33
2022/01/06 04:45:34;;;;;;;4.25;1.35;;;3.50;99.90;;;;;;5034510;28;20509;-36
2022/01/06 04:47:59;;;;;;;2.88;1.02;;;3.50;99.90;;;;;;5049525;28;20270;-35
2022/01/06 04:50:25;;;;;;;10.00;1.42;;;3.40;99.90;;;;;;5034917;28;20465;-34
2022/01/06 04:52:51;;;;;;;9.45;1.70;;;3.40;99.90;;;;;;5034242;28;20085;-34
2022/01/06 04:55:16;;;;;;;9.43;2.15;;;3.40;99.90;;;;;;5033722;28;20112;-31
2022/01/06 04:57:42;;;;;;;6.72;1.38;;;3.40;99.90;;;;;;5040353;28;20030;-38
2022/01/06 05:00:08;;;;;;;3.58;0.93;;;3.40;99.90;;;;;;5031262;28;20032;-31
2022/01/06 05:02:34;;;;;;;5.68;1.08;;;3.40;99.90;;;;;;5031981;28;20446;-34
2022/01/06 05:05:00;;;;;;;11.68;0.88;;;3.30;99.90;;;;;;5037956;28;20065;-35
2022/01/06 05:07:26;;;;;;;9.15;1.42;;;3.40;99.90;;;;;;5041287;28;20029;-31
2022/01/06 05:09:51;;;;;;;5.40;2.10;;;3.30;99.90;;;;;;5037133;28;20082;-33
2022/01/06 05:12:17;;;;;;;7.22;1.02;;;3.40;99.90;;;;;;5040987;28;20032;-30
2022/01/06 05:14:43;;;;;;;5.40;0.95;;;3.40;99.90;;;;;;5046645;28;20025;-31
2022/01/06 05:17:09;;;;;;;3.30;0.82;;;3.40;99.90;;;;;;5051285;28;20030;-31
2022/01/06 05:19:35;;;;;;;5.93;1.02;;;3.40;99.90;;;;;;5033230;28;20510;-39
2022/01/06 05:22:02;;;;;;;4.40;1.10;;;3.30;99.90;;;;;;5032437;28;20021;-33
2022/01/06 05:24:27;;;;;;;8.77;1.48;;;3.30;99.90;;;;;;5052211;28;20049;-37
2022/01/06 05:26:57;;;;;;;4.88;1.45;;;3.30;99.90;;;;;;5043126;28;20103;-35
2022/01/06 05:29:23;;;;;;;7.13;1.65;;;3.30;99.90;;;;;;5031923;28;20378;-31
2022/01/06 05:31:50;;;;;;;9.50;2.70;;;3.20;99.90;;;;;;5042928;28;20037;-30
2022/01/06 05:34:16;;;;;;;11.68;1.85;;;3.30;99.90;;;;;;5047181;28;20079;-31
2022/01/06 05:36:41;;;;;;;3.67;1.13;;;3.30;99.90;;;;;;5035632;28;20022;-30
2022/01/06 05:39:07;;;;;;;7.95;1.33;;;3.20;99.90;;;;;;5037828;28;20021;-33
2022/01/06 05:41:34;;;;;;;6.63;1.50;;;3.30;99.90;;;;;;5038094;28;20075;-34
2022/01/06 05:44:00;;;;;;;2.60;1.05;;;3.20;99.90;;;;;;5032301;28;20025;-36
2022/01/06 05:46:26;;;;;;;15.90;1.40;;;3.20;99.90;;;;;;5044272;28;20063;-31
2022/01/06 05:48:52;;;;;;;6.85;1.38;;;3.20;99.90;;;;;;5043403;28;20454;-32
2022/01/06 05:51:17;;;;;;;4.38;1.27;;;3.20;99.90;;;;;;5043393;28;20033;-34
2022/01/06 05:53:43;;;;;;;18.95;1.85;;;3.20;99.90;;;;;;5046283;28;20037;-34
2022/01/06 05:56:09;;;;;;;7.28;1.83;;;3.20;99.90;;;;;;5045091;28;20032;-39
2022/01/06 05:58:36;;;;;;;7.97;2.13;;;3.20;99.90;;;;;;5040499;28;20074;-37
2022/01/06 06:01:02;;;;;;;5.13;1.35;;;3.10;99.90;;;;;;5042372;28;20545;-31
2022/01/06 06:03:28;;;;;;;8.05;1.67;;;3.10;99.90;;;;;;5035175;28;20124;-31
2022/01/06 06:05:55;;;;;;;12.25;1.67;;;3.10;99.90;;;;;;5037674;28;20105;-39
2022/01/06 06:08:21;;;;;;;7.80;0.85;;;3.10;99.90;;;;;;5043830;28;20539;-33
2022/01/06 06:10:47;;;;;;;10.98;1.27;;;3.20;99.90;;;;;;5040428;28;20041;-40
2022/01/06 06:13:13;;;;;;;6.63;1.30;;;3.20;99.90;;;;;;5039615;28;20044;-31
2022/01/06 06:15:38;;;;;;;6.97;1.15;;;3.10;99.90;;;;;;5050277;28;20156;-31
2022/01/06 06:18:06;;;;;;;3.83;0.80;;;3.10;99.90;;;;;;5037023;28;20030;-31
2022/01/06 06:20:32;;;;;;;13.15;1.85;;;3.10;99.90;;;;;;5046645;28;20384;-33
2022/01/06 06:22:58;;;;;;;13.43;1.20;;;3.10;99.90;;;;;;5049443;28;20029;-32
2022/01/06 06:25:25;;;;;;;7.20;1.17;;;3.10;99.90;;;;;;5051322;28;21517;-48
2022/01/06 06:27:51;;;;;;;6.40;1.90;;;3.10;99.90;;;;;;5035348;28;20105;-37
2022/01/06 06:30:18;;;;;;;6.22;1.02;;;3.10;99.90;;;;;;5045571;28;20041;-32
2022/01/06 06:32:43;;;;;;;6.65;1.35;;;3.00;99.90;;;;;;5043739;28;20021;-36
2022/01/06 06:35:09;;;;;;;7.43;1.60;;;3.00;99.90;;;;;;5050763;28;20070;-39
2022/01/06 06:37:35;;;;;;;6.65;0.98;;;3.00;99.90;;;;;;5034212;28;20469;-36
2022/01/06 06:40:01;;;;;;;7.55;2.13;;;3.00;99.90;;;;;;5035516;28;20022;-35
2022/01/06 06:42:28;;;;;;;6.13;1.15;;;3.00;99.90;;;;;;5044693;28;20029;-37
2022/01/06 06:44:54;;;;;;;8.00;1.60;;;3.00;99.90;;;;;;5014998;28;20072;-34
2022/01/06 06:47:20;;;;;;;8.10;1.13;;;2.90;99.90;;;;;;5034569;28;20025;-37
2022/01/06 06:49:45;;;;;;;5.25;1.20;;;2.90;99.90;;;;;;5039504;28;20037;-36
2022/01/06 06:52:11;;;;;;;4.72;1.13;;;2.90;99.90;;;;;;5041680;28;20020;-36
2022/01/06 06:54:37;;;;;;;9.98;1.63;;;2.90;99.90;;;;;;5049362;28;20074;-31
2022/01/06 06:57:03;;;;;;;10.73;1.17;;;2.90;99.90;;;;;;5037280;28;20025;-32
2022/01/06 06:59:29;;;;;;;8.35;1.35;;;2.90;99.90;;;;;;5037266;28;20607;-34
2022/01/06 07:01:54;;;;;;;5.53;0.80;;;2.90;99.90;;;;;;5041631;28;20515;-32
2022/01/06 07:04:20;;;;;;;7.45;1.83;;;2.90;99.90;;;;;;5037643;28;20485;-34
2022/01/06 07:06:46;;;;;;;5.32;0.90;;;2.90;99.90;;;;;;5033839;28;20029;-35
2022/01/06 07:09:11;;;;;;;1.70;0.60;;;2.90;99.90;;;;;;5039850;28;20032;-42
2022/01/06 07:11:37;;;;;;;2.47;1.13;;;2.90;99.90;;;;;;5035515;28;20029;-37
2022/01/06 07:14:03;;;;;;;12.65;2.38;;;2.90;99.90;;;;;;5033276;28;20025;-32
2022/01/06 07:16:28;;;;;;;15.43;2.17;;;3.00;99.90;;;;;;5034116;28;20469;-34
2022/01/06 07:18:54;;;;;;;7.65;1.70;;;3.00;99.90;;;;;;5040218;28;20037;-37
2022/01/06 07:21:19;;;;;;;16.42;2.63;;;3.00;99.90;;;;;;5049729;28;20051;-33
2022/01/06 07:23:45;;;;;;;10.48;2.00;;;3.00;99.90;;;;;;5033780;28;20037;-40
2022/01/06 07:26:11;;;;;;;6.35;1.58;;;3.10;99.90;;;;;;5042963;28;20021;-34
2022/01/06 07:28:36;;;;;;;8.05;2.03;;;3.20;99.90;;;;;;5038655;28;20519;-35
2022/01/06 07:31:04;;;;;;;9.18;1.50;;;3.30;99.90;;;;;;5034553;28;20481;-36
2022/01/06 07:33:30;;;;;;;7.37;1.13;;;3.30;99.90;;;;;;5040696;28;20022;-34
2022/01/06 07:35:56;;;;;;;15.52;1.30;;;3.40;99.90;;;;;;5034491;28;20272;-34
2022/01/06 07:38:23;;;;;;;6.43;1.20;;;3.40;99.90;;;;;;5038232;28;20021;-35
2022/01/06 07:40:49;;;;;;;9.25;1.70;;;3.50;99.90;;;;;;5039377;28;20543;-38
2022/01/06 07:43:14;;;;;;;3.38;1.40;;;3.60;99.90;;;;;;5045367;28;20024;-36
2022/01/06 07:45:40;;;;;;;2.95;1.23;;;3.70;99.90;;;;;;5043717;28;20140;-41
2022/01/06 07:48:15;;;;;;;8.60;2.17;;;3.80;99.90;;;;;;5033469;28;20034;-34
2022/01/06 07:50:41;;;;;;;5.90;1.40;;;3.80;99.90;;;;;;5036894;28;20034;-37
2022/01/06 07:53:07;;;;;;;5.03;1.90;;;3.80;99.90;;;;;;5037116;28;20021;-40
2022/01/06 07:55:33;;;;;;;4.28;1.33;;;3.80;99.90;;;;;;5051375;28;20040;-38
2022/01/06 07:57:58;;;;;;;12.35;1.63;;;3.80;99.90;;;;;;5042839;28;20071;-37
2022/01/06 08:00:25;;;;;;;3.13;1.40;;;3.90;99.90;;;;;;5034670;28;21331;-38
2022/01/06 08:02:51;;;;;;;3.72;1.50;;;3.80;99.90;;;;;;5038758;28;20115;-34
2022/01/06 08:05:20;;;;;;;11.98;1.58;;;3.80;99.90;;;;;;5034335;28;20057;-34
2022/01/06 08:07:45;;;;;;;10.98;1.42;;;3.80;99.90;;;;;;5031053;28;20535;-33
2022/01/06 08:10:11;;;;;;;10.48;1.65;;;3.80;99.90;;;;;;5017027;28;20026;-34
2022/01/06 08:12:37;;;;;;;3.28;1.20;;;3.90;99.90;;;;;;5015067;28;20044;-33
2022/01/06 08:15:04;;;;;;;5.15;1.52;;;3.90;99.90;;;;;;5028441;28;20477;-35
2022/01/06 08:17:29;;;;;;;2.10;1.20;;;3.90;99.90;;;;;;5030522;28;20025;-41
2022/01/06 08:19:55;;;;;;;11.15;2.78;;;3.90;99.90;;;;;;5027576;28;20032;-31
2022/01/06 08:22:21;;;;;;;9.05;1.90;;;4.00;99.90;;;;;;5032964;28;20014;-32
2022/01/06 08:24:47;;;;;;;6.53;1.88;;;4.00;99.90;;;;;;5017229;28;20026;-37
2022/01/06 08:27:13;;;;;;;7.50;1.05;;;4.00;99.90;;;;;;5029987;28;20358;-35
2022/01/06 08:29:39;;;;;;;4.10;1.27;;;3.90;99.90;;;;;;5025262;28;20045;-34
2022/01/06 08:32:06;;;;;;;6.80;1.77;;;4.00;99.90;;;;;;5013053;28;20394;-38
2022/01/06 08:34:33;;;;;;;7.93;1.05;;;3.90;99.90;;;;;;5032514;28;20037;-34
2022/01/06 08:36:58;;;;;;;7.00;1.58;;;3.90;99.90;;;;;;5032707;28;20104;-31
2022/01/06 08:39:24;;;;;;;12.38;2.10;;;3.90;99.90;;;;;;5033299;28;20187;-30
2022/01/06 08:41:50;;;;;;;8.70;1.98;;;3.90;99.90;;;;;;5046717;28;20512;-31
2022/01/06 08:44:16;;;;;;;7.28;1.75;;;3.90;99.90;;;;;;5035113;28;20392;-39
2022/01/06 08:46:42;;;;;;;8.73;2.33;;;3.90;99.90;;;;;;5033496;28;20014;-36
2022/01/06 08:49:11;;;;;;;16.80;2.13;;;3.90;99.90;;;;;;5035163;28;20032;-34
2022/01/06 08:51:38;;;;;;;9.95;2.03;;;4.00;99.90;;;;;;5033849;28;20060;-35
2022/01/06 08:54:04;;;;;;;5.10;1.13;;;4.00;99.90;;;;;;5032751;28;20366;-32
2022/01/06 08:56:30;;;;;;;6.57;1.63;;;4.10;99.90;;;;;;5032464;28;20424;-36
2022/01/06 08:58:55;;;;;;;9.80;1.40;;;4.10;99.90;;;;;;5030923;28;20084;-32
2022/01/06 09:01:21;;;;;;;4.45;1.88;;;4.10;99.90;;;;;;5032074;28;20037;-33
2022/01/06 09:03:47;;;;;;;5.22;1.23;;;4.10;99.90;;;;;;5036244;28;20099;-33
2022/01/06 09:06:13;;;;;;;5.95;1.98;;;4.10;99.90;;;;;;5031795;28;20139;-34
2022/01/06 09:08:39;;;;;;;8.55;1.75;;;4.20;99.90;;;;;;5029856;28;20045;-37
2022/01/06 09:11:05;;;;;;;5.85;1.33;;;4.20;99.90;;;;;;5030743;28;20028;-37
2022/01/06 09:13:30;;;;;;;6.78;1.63;;;4.30;99.90;;;;;;5032318;28;20096;-35
2022/01/06 09:15:57;;;;;;;9.00;1.70;;;4.30;99.90;;;;;;5031297;28;20033;-34
2022/01/06 09:18:22;;;;;;;8.27;1.63;;;4.40;99.90;;;;;;5032297;28;20040;-33
2022/01/06 09:20:48;;;;;;;4.75;1.38;;;4.40;99.90;;;;;;5025393;28;20031;-31
2022/01/06 09:23:14;;;;;;;7.78;2.10;;;4.50;99.90;;;;;;5016725;28;20033;-32
2022/01/06 09:25:39;;;;;;;9.90;3.55;;;4.50;99.90;;;;;;5030380;28;20097;-37
2022/01/06 09:28:05;;;;;;;9.43;1.77;;;4.60;99.90;;;;;;5028517;28;20021;-33
2022/01/06 09:30:31;;;;;;;6.03;1.10;;;4.60;99.90;;;;;;5028773;28;20470;-33
2022/01/06 09:32:56;;;;;;;9.63;1.45;;;4.70;99.90;;;;;;5029286;28;20030;-40
2022/01/06 09:35:22;;;;;;;2.30;1.02;;;4.70;99.90;;;;;;5029953;28;20405;-36
2022/01/06 09:37:48;;;;;;;7.13;1.40;;;4.80;99.90;;;;;;5028813;28;20106;-40
2022/01/06 09:40:14;;;;;;;5.28;0.98;;;4.80;99.90;;;;;;5026929;28;20505;-37
2022/01/06 09:42:42;;;;;;;10.75;1.38;;;4.90;99.90;;;;;;5026091;28;20132;-37
2022/01/06 09:45:08;;;;;;;15.88;1.55;;;4.90;99.90;;;;;;5027065;28;20477;-34
2022/01/06 09:47:36;;;;;;;9.13;0.98;;;5.00;99.90;;;;;;5027792;28;20025;-36
2022/01/06 09:50:02;;;;;;;7.38;1.42;;;5.00;99.90;;;;;;5028090;28;20038;-32
2022/01/06 09:52:27;;;;;;;9.40;1.48;;;5.00;99.90;;;;;;5027846;28;20345;-31
2022/01/06 09:54:53;;;;;;;5.53;1.02;;;5.10;99.90;;;;;;5030224;28;20112;-37
2022/01/06 09:57:19;;;;;;;5.57;1.00;;;5.10;99.90;;;;;;5036369;28;20022;-30
2022/01/06 09:59:44;;;;;;;12.77;1.33;;;5.20;99.90;;;;;;5038448;28;20064;-32
2022/01/06 10:02:16;;;;;;;6.63;1.23;;;5.20;99.90;;;;;;5036065;28;20045;-37
2022/01/06 10:04:43;;;;;;;6.05;1.50;;;5.20;99.90;;;;;;5028275;28;20030;-36
2022/01/06 10:07:10;;;;;;;7.00;1.50;;;5.20;99.90;;;;;;5023012;28;20025;-36
2022/01/06 10:09:38;;;;;;;7.47;1.75;;;5.30;99.90;;;;;;5025912;28;20022;-33
2022/01/06 10:12:08;;;;;;;;;;;5.30;99.90;;;;;;5027529;28;20425;-37
2022/01/06 10:14:41;;;;;;;5.03;1.90;;;5.30;99.90;;;;;;5025457;28;20387;-38
2022/01/06 10:17:07;;;;;;;12.40;2.20;;;5.40;99.90;;;;;;5030093;28;22256;-33
2022/01/06 10:19:36;;;;;;;3.47;1.65;;;5.40;99.90;;;;;;5026373;28;20107;-33
2022/01/06 10:22:01;;;;;;;6.15;1.80;;;5.50;99.90;;;;;;5026001;28;20117;-36
2022/01/06 10:24:28;;;;;;;3.85;1.40;;;5.50;99.90;;;;;;5025421;28;20096;-36
2022/01/06 10:27:15;;;;;;;9.07;1.58;;;5.50;99.90;;;;;;5021653;28;20040;-34
2022/01/06 10:29:46;;;;;;;7.55;1.50;;;5.50;99.90;;;;;;5020890;28;20075;-37
2022/01/06 10:32:17;;;;;;;9.65;2.00;;;5.60;99.90;;;;;;5024943;28;20595;-31
2022/01/06 10:34:46;;;;;;;8.65;2.15;;;5.60;99.90;;;;;;5026539;28;20485;-38
2022/01/06 10:37:21;;;;;;;7.95;2.72;;;5.70;99.90;;;;;;5025684;28;20505;-33
2022/01/06 10:39:49;;;;;;;7.13;1.77;;;5.70;99.90;;;;;;5024788;28;20400;-32
2022/01/06 10:42:15;;;;;;;11.13;1.83;;;5.80;99.90;;;;;;5029848;28;20080;-33
2022/01/06 10:44:54;;;;;;;15.10;2.10;;;5.80;99.90;;;;;;5029513;28;20029;-33
2022/01/06 10:47:36;;;;;;;;;;;5.90;99.90;;;;;;5031608;28;20032;-32
2022/01/06 10:50:16;;;;;;;14.85;1.60;;;6.00;99.90;;;;;;5031601;28;19936;-32
2022/01/06 10:52:47;;;;;;;5.05;1.05;;;6.00;99.90;;;;;;5029074;28;20553;-38
2022/01/06 10:55:17;;;;;;;10.68;1.83;;;6.00;99.90;;;;;;5033609;28;20448;-31
2022/01/06 10:57:54;;;;;;;11.10;1.40;;;6.00;99.90;;;;;;5028156;28;20026;-36
2022/01/06 11:00:22;;;;;;;8.38;1.77;;;6.00;99.90;;;;;;5026367;28;20064;-37
2022/01/06 11:02:48;;;;;;;6.10;1.40;;;6.00;99.90;;;;;;5034664;28;20139;-32
2022/01/06 11:05:14;;;;;;;6.57;1.25;;;6.00;99.90;;;;;;5034729;28;20076;-34
2022/01/06 11:07:40;;;;;;;14.32;2.15;;;6.00;99.90;;;;;;5033576;28;20026;-34
2022/01/06 11:10:14;;;;;;;9.25;1.73;;;6.10;99.90;;;;;;5033536;28;20485;-35
2022/01/06 11:12:40;;;;;;;5.65;1.70;;;6.20;99.90;;;;;;5034087;28;20025;-31
2022/01/06 11:15:07;;;;;;;10.77;2.65;;;6.30;99.90;;;;;;5033563;28;20535;-31
2022/01/06 11:17:33;;;;;;;6.75;1.63;;;6.40;99.90;;;;;;5033037;28;20025;-34
2022/01/06 11:19:59;;;;;;;9.63;1.80;;;6.60;99.90;;;;;;5033063;28;20029;-33
2022/01/06 11:22:26;;;;;;;7.35;2.22;;;6.60;99.90;;;;;;5033405;28;20120;-33
2022/01/06 11:24:59;;;;;;;6.28;1.60;;;6.60;99.90;;;;;;5033785;28;20418;-42
2022/01/06 11:27:36;;;;;;;10.85;1.50;;;6.60;99.90;;;;;;5033857;28;20434;-38
2022/01/06 11:30:15;;;;;;;6.77;1.57;;;6.50;99.90;;;;;;5033650;28;20029;-38
2022/01/06 11:32:42;;;;;;;7.93;1.75;;;6.50;99.90;;;;;;5033351;28;20025;-42
2022/01/06 11:35:11;;;;;;;9.23;2.10;;;6.50;99.90;;;;;;5033682;28;20025;-31
2022/01/06 11:37:51;;;;;;;4.70;1.60;;;6.50;99.90;;;;;;5032091;28;20036;-31
2022/01/06 11:40:32;;;;;;;16.35;2.40;;;6.60;99.90;;;;;;5032089;28;20033;-36
2022/01/06 11:42:58;;;;;;;16.38;1.50;;;6.80;99.90;;;;;;5039483;28;20116;-40
2022/01/06 11:45:25;;;;;;;8.10;1.70;;;6.90;99.90;;;;;;5033379;28;20017;-33
2022/01/06 11:48:19;;;;;;;6.47;1.27;;;7.00;99.90;;;;;;5030835;28;20013;-38
2022/01/06 11:50:47;;;;;;;10.65;1.52;;;7.10;99.90;;;;;;5033328;28;20447;-30
2022/01/06 11:53:15;;;;;;;12.75;1.83;;;7.20;99.90;;;;;;5032705;28;20533;-35
2022/01/06 11:55:42;;;;;;;;;;;7.30;99.90;;;;;;5032353;28;20021;-33
2022/01/06 11:58:22;;;;;;;15.73;2.38;;;7.40;99.90;;;;;;5033085;28;20349;-32
2022/01/06 12:00:58;;;;;;;7.75;1.83;;;7.60;99.90;;;;;;5033386;28;20538;-37
2022/01/06 12:03:38;;;;;;;14.10;2.08;;;7.70;99.90;;;;;;5032422;28;20068;-32
2022/01/06 12:06:05;;;;;;;4.90;1.77;;;7.90;99.90;;;;;;5029420;28;20088;-38
2022/01/06 12:08:40;;;;;;;9.45;1.38;;;7.90;99.90;;;;;;5028776;28;20525;-34
2022/01/06 12:11:19;;;;;;;11.98;2.03;;;8.10;99.90;;;;;;5030526;28;20033;-34
2022/01/06 12:13:47;;;;;;;7.60;1.38;;;8.20;99.90;;;;;;5030426;28;20029;-35
2022/01/06 12:16:22;;;;;;;10.10;1.77;;;8.20;99.90;;;;;;5032789;28;20029;-38
2022/01/06 12:18:48;;;;;;;23.20;2.60;;;8.10;99.90;;;;;;5030762;28;20041;-33
2022/01/06 12:21:13;;;;;;;5.20;1.40;;;8.10;99.90;;;;;;5031814;28;20496;-32
2022/01/06 12:23:39;;;;;;;15.23;2.88;;;8.10;99.90;;;;;;5030138;28;20031;-33
2022/01/06 12:26:08;;;;;;;11.88;1.08;;;8.10;99.90;;;;;;5030723;28;20104;-38
2022/01/06 12:28:43;;;;;;;9.05;1.20;;;8.20;99.90;;;;;;5031280;28;20466;-38
2022/01/06 12:31:09;;;;;;;10.95;1.55;;;8.10;99.90;;;;;;5026532;28;20033;-42
2022/01/06 12:33:46;;;;;;;11.77;1.50;;;8.10;99.90;;;;;;5028359;28;20087;-35
2022/01/06 12:36:15;;;;;;;11.70;1.52;;;8.10;99.90;;;;;;5028296;28;20025;-35
2022/01/06 12:38:41;;;;;;;9.50;1.52;;;8.10;99.90;;;;;;5029330;28;20558;-37
2022/01/06 12:41:06;;;;;;;9.07;1.17;;;8.00;99.90;;;;;;5030255;28;20104;-38
2022/01/06 12:43:35;;;;;;;14.82;2.08;;;8.00;99.90;;;;;;5032606;28;20052;-34
2022/01/06 12:46:07;;;;;;;10.77;1.27;;;7.90;99.90;;;;;;5029763;28;20112;-33
2022/01/06 12:48:40;;;;;;;11.02;1.45;;;7.90;99.90;;;;;;5031174;28;20088;-34
2022/01/06 12:51:08;;;;;;;8.77;1.10;;;7.90;99.90;;;;;;5031284;28;20374;-35
2022/01/06 12:53:42;;;;;;;15.93;2.15;;;7.80;99.90;;;;;;5030687;28;20022;-35
2022/01/06 12:56:20;;;;;;;7.32;1.20;;;7.90;99.90;;;;;;5032408;28;20390;-35
2022/01/06 12:58:46;;;;;;;2.92;0.95;;;7.90;99.90;;;;;;5035295;28;20032;-34
2022/01/06 13:01:12;;;;;;;15.10;2.13;;;7.90;99.90;;;;;;5034321;28;20104;-31
2022/01/06 13:03:41;;;;;;;5.18;1.05;;;7.90;99.90;;;;;;5035421;28;20092;-34
2022/01/06 13:06:10;;;;;;;6.03;1.17;;;7.90;99.90;;;;;;5032814;28;20029;-33
2022/01/06 13:08:55;;;;;;;10.63;1.30;;;7.90;99.90;;;;;;5032628;28;20052;-35